createdAt,value
2017-02-18T00:00:25.486Z,18.06
2017-02-18T00:01:34.492Z,18.03
2017-02-18T00:02:43.520Z,18.04
2017-02-18T00:03:52.545Z,18.03
2017-02-18T00:05:01.572Z,17.95
2017-02-18T00:06:10.575Z,17.84
2017-02-18T00:07:19.596Z,17.88
2017-02-18T00:08:28.605Z,17.85
2017-02-18T00:09:37.622Z,17.8
2017-02-18T00:10:46.638Z,17.74
2017-02-18T00:11:55.664Z,17.67
2017-02-18T00:13:04.666Z,17.74
2017-02-18T00:14:13.707Z,17.6
2017-02-18T00:15:22.721Z,17.6
2017-02-18T00:16:31.734Z,17.55
2017-02-18T00:17:40.769Z,17.44
2017-02-18T00:18:49.810Z,17.44
2017-02-18T00:19:58.827Z,17.42
2017-02-18T00:21:07.843Z,17.35
2017-02-18T00:22:16.841Z,17.42
2017-02-18T00:23:25.856Z,17.24
2017-02-18T00:24:34.878Z,17.23
2017-02-18T00:25:43.889Z,17.3
2017-02-18T00:26:52.913Z,17.15
2017-02-18T00:28:01.958Z,17.14
2017-02-18T00:29:11.379Z,17.13
2017-02-18T00:30:20.843Z,16.96
2017-02-18T00:31:29.876Z,17.06
2017-02-18T00:32:38.905Z,16.95
2017-02-18T00:33:47.905Z,17.08
2017-02-18T00:34:56.930Z,17
2017-02-18T00:36:06.768Z,16.93
2017-02-18T00:37:15.793Z,16.93
2017-02-18T00:38:24.805Z,16.77
2017-02-18T00:39:34.239Z,16.75
2017-02-18T00:40:43.712Z,16.74
2017-02-18T00:41:52.723Z,16.8
2017-02-18T00:43:01.747Z,16.69
2017-02-18T00:44:11.168Z,16.71
2017-02-18T00:45:20.599Z,16.59
2017-02-18T00:46:29.620Z,16.44
2017-02-18T00:47:38.630Z,16.45
2017-02-18T00:48:47.653Z,16.56
2017-02-18T00:49:57.092Z,16.47
2017-02-18T00:51:06.101Z,16.41
2017-02-18T00:52:15.104Z,16.44
2017-02-18T00:53:24.167Z,16.47
2017-02-18T00:54:33.196Z,16.47
2017-02-18T00:55:42.207Z,16.53
2017-02-18T00:56:51.226Z,16.44
2017-02-18T00:58:00.240Z,16.45
2017-02-18T00:59:09.255Z,16.5
2017-02-18T01:00:18.272Z,16.4
2017-02-18T01:01:27.269Z,16.37
2017-02-18T01:02:36.284Z,16.32
2017-02-18T01:03:45.289Z,16.34
2017-02-18T01:04:54.294Z,16.3
2017-02-18T01:06:03.714Z,16.22
2017-02-18T01:07:12.736Z,16.34
2017-02-18T01:08:21.740Z,16.26
2017-02-18T01:09:30.754Z,16.37
2017-02-18T01:10:39.774Z,16.25
2017-02-18T01:11:48.794Z,16.2
2017-02-18T01:12:57.813Z,16.09
2017-02-18T01:14:06.841Z,16.04
2017-02-18T01:15:15.874Z,16.1
2017-02-18T01:16:24.902Z,16.03
2017-02-18T01:17:33.923Z,15.96
2017-02-18T01:18:42.960Z,15.88
2017-02-18T01:19:51.986Z,16.01
2017-02-18T01:21:01.005Z,16.01
2017-02-18T01:22:10.024Z,16.03
2017-02-18T01:23:19.023Z,15.96
2017-02-18T01:24:28.069Z,15.86
2017-02-18T01:25:37.103Z,15.78
2017-02-18T01:26:46.104Z,15.69
2017-02-18T01:27:55.151Z,15.69
2017-02-18T01:29:04.590Z,15.76
2017-02-18T01:30:13.595Z,15.84
2017-02-18T01:31:23.458Z,15.82
2017-02-18T01:32:32.892Z,15.7
2017-02-18T01:33:41.893Z,15.74
2017-02-18T01:34:50.917Z,15.71
2017-02-18T01:35:59.939Z,15.7
2017-02-18T01:37:08.956Z,15.73
2017-02-18T01:38:17.973Z,15.66
2017-02-18T01:39:26.994Z,15.63
2017-02-18T01:40:35.997Z,15.64
2017-02-18T01:41:45.020Z,15.69
2017-02-18T01:42:54.040Z,15.53
2017-02-18T01:44:03.045Z,15.56
2017-02-18T01:45:12.056Z,15.6
2017-02-18T01:46:21.070Z,15.74
2017-02-18T01:47:30.091Z,15.64
2017-02-18T01:48:39.102Z,15.59
2017-02-18T01:49:48.533Z,15.49
2017-02-18T01:50:57.557Z,15.51
2017-02-18T01:52:06.570Z,15.44
2017-02-18T01:53:15.596Z,15.48
2017-02-18T01:54:24.596Z,15.37
2017-02-18T01:55:33.605Z,15.52
2017-02-18T01:56:42.665Z,15.51
2017-02-18T01:57:51.660Z,15.55
2017-02-18T01:59:00.692Z,15.41
2017-02-18T02:00:10.125Z,15.44
2017-02-18T02:01:19.148Z,15.46
2017-02-18T02:02:28.154Z,15.38
2017-02-18T02:03:37.185Z,15.48
2017-02-18T02:04:46.191Z,15.38
2017-02-18T02:05:55.207Z,15.34
2017-02-18T02:07:04.234Z,15.46
2017-02-18T02:08:13.262Z,15.42
2017-02-18T02:09:22.264Z,15.49
2017-02-18T02:10:31.263Z,15.42
2017-02-18T02:11:40.281Z,15.44
2017-02-18T02:12:49.298Z,15.26
2017-02-18T02:13:58.314Z,15.27
2017-02-18T02:15:07.328Z,15.28
2017-02-18T02:16:16.347Z,15.27
2017-02-18T02:17:25.784Z,15.15
2017-02-18T02:18:34.801Z,15.28
2017-02-18T02:19:43.813Z,15.28
2017-02-18T02:20:52.914Z,15.15
2017-02-18T02:22:01.913Z,15.18
2017-02-18T02:23:10.943Z,15.08
2017-02-18T02:24:19.950Z,15.06
2017-02-18T02:25:28.984Z,15.05
2017-02-18T02:26:37.993Z,14.97
2017-02-18T02:27:47.011Z,14.96
2017-02-18T02:28:56.030Z,14.96
2017-02-18T02:30:05.045Z,15.04
2017-02-18T02:31:14.044Z,15
2017-02-18T02:32:23.080Z,14.9
2017-02-18T02:33:32.088Z,14.98
2017-02-18T02:34:41.532Z,14.98
2017-02-18T02:35:50.567Z,14.87
2017-02-18T02:36:59.566Z,14.88
2017-02-18T02:38:08.588Z,14.87
2017-02-18T02:39:17.624Z,14.87
2017-02-18T02:40:26.614Z,14.87
2017-02-18T02:41:35.623Z,14.84
2017-02-18T02:42:45.034Z,14.8
2017-02-18T02:43:54.053Z,14.84
2017-02-18T02:45:03.070Z,14.8
2017-02-18T02:46:12.093Z,14.86
2017-02-18T02:47:21.119Z,14.94
2017-02-18T02:48:30.143Z,15
2017-02-18T02:49:39.146Z,15
2017-02-18T02:50:48.174Z,15.04
2017-02-18T02:51:57.193Z,14.84
2017-02-18T02:53:06.610Z,15
2017-02-18T02:54:15.612Z,15.08
2017-02-18T02:55:24.635Z,15.04
2017-02-18T02:56:33.641Z,15.12
2017-02-18T02:57:42.633Z,15.08
2017-02-18T02:58:51.714Z,15.19
2017-02-18T03:00:00.766Z,15.13
2017-02-18T03:01:10.191Z,15.09
2017-02-18T03:02:19.197Z,15.08
2017-02-18T03:03:28.224Z,15.08
2017-02-18T03:04:37.249Z,15.06
2017-02-18T03:05:46.248Z,15.08
2017-02-18T03:06:55.271Z,14.97
2017-02-18T03:08:04.295Z,15.01
2017-02-18T03:09:13.301Z,14.88
2017-02-18T03:10:22.726Z,14.93
2017-02-18T03:11:31.729Z,14.91
2017-02-18T03:12:40.756Z,14.93
2017-02-18T03:13:49.792Z,14.86
2017-02-18T03:14:58.805Z,14.86
2017-02-18T03:16:07.842Z,14.9
2017-02-18T03:17:16.864Z,14.82
2017-02-18T03:18:25.869Z,14.71
2017-02-18T03:19:35.312Z,14.67
2017-02-18T03:20:44.333Z,14.71
2017-02-18T03:21:53.400Z,14.67
2017-02-18T03:23:02.414Z,14.53
2017-02-18T03:24:11.440Z,14.59
2017-02-18T03:25:20.879Z,14.56
2017-02-18T03:26:29.890Z,14.62
2017-02-18T03:27:38.894Z,14.63
2017-02-18T03:28:47.909Z,14.67
2017-02-18T03:29:56.915Z,14.62
2017-02-18T03:31:06.365Z,14.62
2017-02-18T03:32:15.382Z,14.6
2017-02-18T03:33:24.397Z,14.56
2017-02-18T03:34:33.422Z,14.68
2017-02-18T03:35:42.431Z,14.59
2017-02-18T03:36:51.454Z,14.71
2017-02-18T03:38:00.468Z,14.71
2017-02-18T03:39:09.491Z,14.67
2017-02-18T03:40:18.505Z,14.84
2017-02-18T03:41:27.535Z,14.71
2017-02-18T03:42:36.533Z,14.86
2017-02-18T03:43:45.539Z,14.68
2017-02-18T03:44:54.552Z,14.68
2017-02-18T03:46:03.978Z,14.63
2017-02-18T03:47:12.971Z,14.65
2017-02-18T03:48:21.989Z,14.7
2017-02-18T03:49:31.023Z,14.68
2017-02-18T03:50:40.460Z,14.63
2017-02-18T03:51:49.478Z,14.63
2017-02-18T03:52:58.903Z,14.52
2017-02-18T03:54:07.930Z,14.6
2017-02-18T03:55:16.947Z,14.65
2017-02-18T03:56:25.958Z,14.65
2017-02-18T03:57:34.983Z,14.59
2017-02-18T03:58:44.329Z,14.49
2017-02-18T03:59:53.600Z,14.47
2017-02-18T04:01:02.613Z,14.49
2017-02-18T04:02:11.628Z,14.42
2017-02-18T04:03:20.658Z,14.44
2017-02-18T04:04:29.678Z,14.46
2017-02-18T04:05:38.693Z,14.44
2017-02-18T04:06:47.717Z,14.37
2017-02-18T04:07:56.752Z,14.34
2017-02-18T04:09:05.776Z,14.3
2017-02-18T04:10:14.782Z,14.24
2017-02-18T04:11:23.897Z,14.23
2017-02-18T04:12:32.920Z,14.3
2017-02-18T04:13:41.948Z,14.31
2017-02-18T04:14:51.098Z,14.35
2017-02-18T04:16:00.355Z,14.32
2017-02-18T04:17:09.471Z,14.23
2017-02-18T04:18:18.927Z,14.22
2017-02-18T04:19:28.375Z,14.3
2017-02-18T04:20:37.576Z,14.26
2017-02-18T04:21:46.578Z,14.3
2017-02-18T04:22:55.597Z,14.38
2017-02-18T04:24:04.613Z,14.38
2017-02-18T04:25:14.035Z,14.44
2017-02-18T04:26:23.201Z,14.37
2017-02-18T04:27:32.240Z,14.37
2017-02-18T04:28:41.253Z,14.39
2017-02-18T04:29:50.781Z,14.38
2017-02-18T04:30:59.928Z,14.44
2017-02-18T04:32:09.460Z,14.41
2017-02-18T04:33:18.471Z,14.38
2017-02-18T04:34:27.801Z,14.38
2017-02-18T04:35:37.226Z,14.42
2017-02-18T04:36:46.337Z,14.39
2017-02-18T04:37:55.351Z,14.35
2017-02-18T04:39:04.888Z,14.3
2017-02-18T04:40:13.947Z,14.3
2017-02-18T04:41:23.076Z,14.26
2017-02-18T04:42:32.075Z,14.31
2017-02-18T04:43:41.156Z,14.3
2017-02-18T04:44:50.178Z,14.26
2017-02-18T04:45:59.219Z,14.28
2017-02-18T04:47:08.236Z,14.3
2017-02-18T04:48:17.248Z,14.37
2017-02-18T04:49:26.265Z,14.37
2017-02-18T04:50:35.687Z,14.3
2017-02-18T04:51:44.699Z,14.34
2017-02-18T04:52:54.125Z,14.38
2017-02-18T04:54:03.239Z,14.31
2017-02-18T04:55:12.311Z,14.32
2017-02-18T04:56:21.345Z,14.3
2017-02-18T04:57:30.812Z,14.31
2017-02-18T04:58:39.974Z,14.17
2017-02-18T04:59:48.994Z,14.06
2017-02-18T05:00:58.368Z,14.19
2017-02-18T05:02:07.555Z,14.2
2017-02-18T05:03:17.160Z,14.1
2017-02-18T05:04:26.241Z,14.24
2017-02-18T05:05:35.288Z,14.23
2017-02-18T05:06:44.316Z,14.32
2017-02-18T05:07:53.740Z,14.3
2017-02-18T05:09:03.104Z,14.26
2017-02-18T05:10:12.688Z,14.19
2017-02-18T05:11:21.705Z,14.16
2017-02-18T05:12:30.725Z,14.22
2017-02-18T05:13:40.051Z,14.2
2017-02-18T05:14:49.135Z,14.12
2017-02-18T05:15:58.253Z,14.04
2017-02-18T05:17:08.083Z,14.05
2017-02-18T05:18:17.331Z,14.16
2017-02-18T05:19:26.888Z,14.2
2017-02-18T05:20:36.060Z,14.24
2017-02-18T05:21:45.164Z,14.2
2017-02-18T05:22:54.207Z,14.05
2017-02-18T05:24:03.246Z,14.09
2017-02-18T05:25:12.270Z,14.16
2017-02-18T05:26:21.337Z,14.04
2017-02-18T05:27:30.357Z,14.04
2017-02-18T05:28:39.384Z,14.09
2017-02-18T05:29:48.426Z,14.1
2017-02-18T05:30:57.573Z,14.22
2017-02-18T05:32:06.806Z,14.09
2017-02-18T05:33:15.816Z,14.14
2017-02-18T05:34:24.838Z,14.17
2017-02-18T05:35:33.860Z,14.09
2017-02-18T05:36:43.102Z,14.06
2017-02-18T05:37:52.240Z,14.2
2017-02-18T05:39:01.627Z,14.09
2017-02-18T05:40:10.665Z,14.09
2017-02-18T05:41:19.752Z,14.16
2017-02-18T05:42:28.843Z,14.12
2017-02-18T05:43:37.897Z,14.12
2017-02-18T05:44:47.317Z,14.09
2017-02-18T05:45:56.398Z,14.06
2017-02-18T05:47:05.420Z,14.1
2017-02-18T05:48:14.852Z,14.01
2017-02-18T05:49:23.909Z,14.02
2017-02-18T05:50:33.135Z,13.99
2017-02-18T05:51:42.179Z,14.01
2017-02-18T05:52:51.193Z,14.06
2017-02-18T05:54:00.623Z,14.09
2017-02-18T05:55:09.636Z,14.13
2017-02-18T05:56:18.982Z,14.09
2017-02-18T05:57:28.026Z,13.97
2017-02-18T05:58:37.036Z,13.98
2017-02-18T05:59:46.084Z,14.06
2017-02-18T06:00:55.111Z,14.01
2017-02-18T06:02:04.190Z,13.99
2017-02-18T06:03:13.240Z,14.06
2017-02-18T06:04:22.256Z,14.06
2017-02-18T06:05:31.346Z,14.04
2017-02-18T06:06:40.466Z,14.04
2017-02-18T06:07:50.137Z,13.99
2017-02-18T06:09:00.058Z,13.97
2017-02-18T06:10:09.070Z,13.99
2017-02-18T06:11:18.083Z,13.98
2017-02-18T06:12:27.520Z,13.97
2017-02-18T06:13:36.527Z,13.98
2017-02-18T06:14:45.553Z,13.94
2017-02-18T06:15:54.569Z,14.02
2017-02-18T06:17:06.906Z,13.92
2017-02-18T06:18:18.691Z,13.92
2017-02-18T06:19:27.737Z,13.97
2017-02-18T06:20:39.194Z,13.94
2017-02-18T06:21:54.085Z,13.79
2017-02-18T06:23:08.012Z,13.84
2017-02-18T06:24:21.482Z,13.94
2017-02-18T06:25:35.109Z,13.8
2017-02-18T06:26:48.676Z,13.89
2017-02-18T06:28:02.970Z,13.95
2017-02-18T06:29:16.638Z,13.99
2017-02-18T06:30:30.501Z,13.97
2017-02-18T06:31:44.167Z,14.01
2017-02-18T06:32:58.112Z,14.04
2017-02-18T06:34:11.726Z,13.92
2017-02-18T06:35:26.962Z,13.99
2017-02-18T06:36:40.339Z,13.99
2017-02-18T06:37:54.798Z,13.97
2017-02-18T06:39:06.676Z,13.91
2017-02-18T06:40:15.695Z,13.99
2017-02-18T06:41:24.862Z,13.98
2017-02-18T06:42:34.023Z,13.97
2017-02-18T06:43:45.623Z,13.94
2017-02-18T06:44:58.282Z,13.95
2017-02-18T06:46:11.072Z,13.95
2017-02-18T06:47:25.819Z,13.99
2017-02-18T06:48:39.554Z,13.95
2017-02-18T06:49:53.336Z,13.98
2017-02-18T06:51:08.525Z,13.92
2017-02-18T06:52:22.914Z,13.99
2017-02-18T06:53:37.293Z,13.87
2017-02-18T06:54:51.468Z,13.86
2017-02-18T06:56:05.346Z,13.94
2017-02-18T06:57:19.597Z,13.86
2017-02-18T06:58:34.434Z,13.89
2017-02-18T06:59:47.901Z,13.97
2017-02-18T07:01:01.919Z,13.89
2017-02-18T07:02:15.608Z,13.87
2017-02-18T07:03:30.816Z,13.91
2017-02-18T07:04:45.420Z,13.94
2017-02-18T07:05:56.910Z,13.86
2017-02-18T07:07:06.340Z,13.95
2017-02-18T07:08:15.367Z,13.87
2017-02-18T07:09:24.374Z,13.81
2017-02-18T07:10:33.392Z,13.89
2017-02-18T07:11:42.406Z,13.86
2017-02-18T07:12:51.428Z,13.89
2017-02-18T07:14:00.423Z,13.89
2017-02-18T07:15:09.487Z,13.86
2017-02-18T07:16:18.487Z,13.87
2017-02-18T07:17:27.516Z,13.94
2017-02-18T07:18:36.687Z,13.94
2017-02-18T07:19:45.716Z,13.8
2017-02-18T07:20:54.718Z,13.84
2017-02-18T07:22:03.752Z,13.79
2017-02-18T07:23:12.778Z,13.79
2017-02-18T07:24:21.866Z,13.89
2017-02-18T07:25:30.884Z,13.79
2017-02-18T07:26:39.895Z,13.79
2017-02-18T07:27:48.906Z,13.84
2017-02-18T07:28:57.930Z,13.83
2017-02-18T07:30:06.940Z,13.76
2017-02-18T07:31:15.953Z,13.84
2017-02-18T07:32:24.967Z,13.83
2017-02-18T07:33:33.964Z,13.86
2017-02-18T07:34:42.992Z,13.84
2017-02-18T07:35:52.091Z,13.79
2017-02-18T07:37:01.234Z,13.79
2017-02-18T07:38:10.238Z,13.76
2017-02-18T07:39:19.254Z,13.81
2017-02-18T07:40:28.257Z,13.77
2017-02-18T07:41:37.274Z,13.76
2017-02-18T07:42:46.292Z,13.76
2017-02-18T07:43:55.321Z,13.79
2017-02-18T07:45:04.336Z,13.81
2017-02-18T07:46:13.781Z,13.77
2017-02-18T07:47:23.222Z,13.8
2017-02-18T07:48:32.239Z,13.83
2017-02-18T07:49:44.254Z,13.8
2017-02-18T07:50:59.271Z,13.8
2017-02-18T07:52:14.280Z,13.74
2017-02-18T07:53:28.633Z,13.76
2017-02-18T07:54:43.001Z,13.79
2017-02-18T07:55:56.411Z,13.77
2017-02-18T07:57:11.984Z,13.73
2017-02-18T07:58:26.472Z,13.86
2017-02-18T07:59:41.095Z,13.8
2017-02-18T08:00:55.880Z,13.79
2017-02-18T08:02:10.537Z,13.79
2017-02-18T08:03:25.216Z,13.73
2017-02-18T08:04:39.204Z,13.74
2017-02-18T08:05:52.220Z,13.68
2017-02-18T08:07:06.342Z,13.74
2017-02-18T08:08:19.086Z,13.64
2017-02-18T08:09:28.190Z,13.66
2017-02-18T08:10:37.215Z,13.61
2017-02-18T08:11:46.423Z,13.66
2017-02-18T08:12:55.771Z,13.66
2017-02-18T08:14:04.883Z,13.61
2017-02-18T08:15:13.905Z,13.66
2017-02-18T08:16:23.504Z,13.64
2017-02-18T08:17:32.527Z,13.69
2017-02-18T08:18:41.626Z,13.56
2017-02-18T08:19:50.645Z,13.56
2017-02-18T08:20:59.679Z,13.5
2017-02-18T08:22:08.796Z,13.56
2017-02-18T08:23:18.146Z,13.51
2017-02-18T08:24:27.419Z,13.59
2017-02-18T08:25:36.964Z,13.61
2017-02-18T08:26:46.041Z,13.59
2017-02-18T08:27:55.072Z,13.66
2017-02-18T08:29:04.347Z,13.65
2017-02-18T08:30:13.892Z,13.62
2017-02-18T08:31:23.042Z,13.61
2017-02-18T08:32:32.081Z,13.56
2017-02-18T08:33:41.098Z,13.59
2017-02-18T08:34:50.130Z,13.69
2017-02-18T08:35:59.148Z,13.68
2017-02-18T08:37:08.155Z,13.64
2017-02-18T08:38:17.179Z,13.62
2017-02-18T08:39:26.199Z,13.55
2017-02-18T08:40:35.197Z,13.55
2017-02-18T08:41:44.221Z,13.62
2017-02-18T08:42:53.238Z,13.59
2017-02-18T08:44:02.243Z,13.66
2017-02-18T08:45:11.263Z,13.64
2017-02-18T08:46:20.268Z,13.61
2017-02-18T08:47:29.295Z,13.64
2017-02-18T08:48:38.319Z,13.65
2017-02-18T08:49:47.753Z,13.62
2017-02-18T08:50:57.177Z,13.59
2017-02-18T08:52:06.187Z,13.61
2017-02-18T08:53:15.202Z,13.65
2017-02-18T08:54:24.201Z,13.8
2017-02-18T08:55:33.215Z,14.02
2017-02-18T08:56:42.221Z,14.1
2017-02-18T08:57:51.218Z,14.31
2017-02-18T08:59:00.231Z,14.42
2017-02-18T09:00:09.257Z,14.57
2017-02-18T09:01:18.317Z,14.7
2017-02-18T09:02:28.361Z,14.97
2017-02-18T09:03:37.372Z,15.08
2017-02-18T09:04:46.400Z,15.15
2017-02-18T09:05:55.469Z,15.28
2017-02-18T09:07:05.260Z,15.38
2017-02-18T09:08:14.855Z,15.49
2017-02-18T09:09:23.907Z,15.61
2017-02-18T09:10:32.931Z,15.7
2017-02-18T09:11:41.978Z,15.78
2017-02-18T09:12:51.799Z,15.78
2017-02-18T09:14:00.959Z,15.81
2017-02-18T09:15:10.154Z,15.88
2017-02-18T09:16:19.180Z,16.01
2017-02-18T09:17:28.184Z,16.01
2017-02-18T09:18:37.194Z,16.09
2017-02-18T09:19:46.219Z,16.03
2017-02-18T09:20:55.241Z,16.03
2017-02-18T09:22:04.268Z,16.14
2017-02-18T09:23:13.271Z,16.18
2017-02-18T09:24:22.299Z,16.23
2017-02-18T09:25:31.311Z,16.27
2017-02-18T09:26:40.331Z,16.3
2017-02-18T09:27:49.341Z,16.3
2017-02-18T09:28:58.904Z,16.32
2017-02-18T09:30:08.175Z,16.38
2017-02-18T09:31:17.196Z,16.37
2017-02-18T09:32:26.232Z,16.41
2017-02-18T09:33:35.241Z,16.37
2017-02-18T09:34:45.076Z,16.44
2017-02-18T09:35:54.504Z,16.5
2017-02-18T09:37:03.502Z,16.55
2017-02-18T09:38:12.517Z,16.66
2017-02-18T09:39:21.541Z,16.62
2017-02-18T09:40:30.565Z,16.74
2017-02-18T09:41:39.589Z,16.77
2017-02-18T09:42:48.604Z,16.77
2017-02-18T09:43:58.328Z,16.82
2017-02-18T09:45:07.783Z,16.78
2017-02-18T09:46:16.797Z,16.85
2017-02-18T09:47:25.795Z,16.95
2017-02-18T09:48:34.978Z,16.95
2017-02-18T09:49:43.994Z,17.02
2017-02-18T09:50:53.016Z,17.02
2017-02-18T09:52:02.084Z,17.15
2017-02-18T09:53:11.106Z,17.14
2017-02-18T09:54:20.111Z,17.11
2017-02-18T09:55:29.530Z,17.13
2017-02-18T09:56:38.533Z,17.23
2017-02-18T09:57:47.540Z,17.26
2017-02-18T09:58:56.560Z,17.2
2017-02-18T10:00:05.993Z,17.36
2017-02-18T10:01:14.999Z,17.32
2017-02-18T10:02:24.018Z,17.24
2017-02-18T10:03:33.065Z,17.32
2017-02-18T10:04:42.078Z,17.29
2017-02-18T10:05:51.145Z,17.32
2017-02-18T10:07:00.175Z,17.33
2017-02-18T10:08:09.181Z,17.29
2017-02-18T10:09:18.213Z,17.3
2017-02-18T10:10:27.558Z,17.3
2017-02-18T10:11:36.559Z,17.38
2017-02-18T10:12:45.577Z,17.33
2017-02-18T10:13:54.594Z,17.36
2017-02-18T10:15:04.424Z,17.38
2017-02-18T10:16:13.439Z,17.4
2017-02-18T10:17:22.466Z,17.42
2017-02-18T10:18:31.463Z,17.48
2017-02-18T10:19:40.482Z,17.48
2017-02-18T10:20:49.494Z,17.44
2017-02-18T10:21:58.495Z,17.54
2017-02-18T10:23:07.545Z,17.53
2017-02-18T10:24:16.556Z,17.51
2017-02-18T10:25:25.582Z,17.7
2017-02-18T10:26:34.603Z,17.6
2017-02-18T10:27:43.628Z,17.64
2017-02-18T10:28:53.187Z,17.85
2017-02-18T10:30:02.347Z,17.86
2017-02-18T10:31:11.539Z,18.09
2017-02-18T10:32:20.641Z,18.26
2017-02-18T10:33:29.657Z,18.34
2017-02-18T10:34:38.721Z,18.35
2017-02-18T10:35:47.753Z,18.29
2017-02-18T10:36:56.774Z,18.26
2017-02-18T10:38:06.762Z,18.17
2017-02-18T10:39:15.794Z,18.26
2017-02-18T10:40:25.209Z,18.36
2017-02-18T10:41:34.237Z,18.42
2017-02-18T10:42:43.255Z,18.39
2017-02-18T10:43:52.259Z,18.36
2017-02-18T10:45:01.790Z,18.42
2017-02-18T10:46:10.990Z,18.46
2017-02-18T10:47:19.997Z,18.51
2017-02-18T10:48:29.021Z,18.57
2017-02-18T10:49:38.044Z,18.58
2017-02-18T10:50:47.061Z,18.53
2017-02-18T10:51:56.164Z,18.59
2017-02-18T10:53:05.179Z,18.54
2017-02-18T10:54:14.203Z,18.57
2017-02-18T10:55:23.239Z,18.51
2017-02-18T10:56:32.277Z,18.58
2017-02-18T10:57:41.269Z,18.59
2017-02-18T10:58:50.311Z,18.57
2017-02-18T10:59:59.336Z,18.71
2017-02-18T11:01:08.418Z,18.61
2017-02-18T11:02:17.425Z,18.69
2017-02-18T11:03:26.517Z,18.71
2017-02-18T11:04:35.538Z,18.77
2017-02-18T11:05:44.572Z,18.86
2017-02-18T11:06:54.030Z,18.98
2017-02-18T11:08:03.638Z,19.01
2017-02-18T11:09:13.897Z,18.94
2017-02-18T11:10:23.905Z,18.97
2017-02-18T11:11:33.714Z,18.97
2017-02-18T11:12:43.535Z,18.97
2017-02-18T11:13:53.526Z,18.8
2017-02-18T11:15:03.599Z,18.81
2017-02-18T11:16:13.453Z,18.72
2017-02-18T11:17:23.444Z,18.77
2017-02-18T11:18:32.804Z,18.86
2017-02-18T11:19:41.881Z,18.87
2017-02-18T11:20:51.176Z,18.95
2017-02-18T11:22:00.198Z,19.01
2017-02-18T11:23:10.634Z,18.91
2017-02-18T11:24:21.134Z,19.02
2017-02-18T11:25:33.099Z,18.95
2017-02-18T11:26:43.583Z,19.01
2017-02-18T11:27:57.078Z,18.99
2017-02-18T11:29:06.613Z,19.07
2017-02-18T11:30:16.913Z,19.14
2017-02-18T11:31:25.974Z,19.05
2017-02-18T11:32:35.604Z,19.15
2017-02-18T11:33:45.462Z,19.06
2017-02-18T11:34:55.233Z,19.15
2017-02-18T11:36:04.389Z,19.05
2017-02-18T11:37:13.865Z,19.07
2017-02-18T11:38:23.267Z,19.07
2017-02-18T11:39:32.278Z,19.18
2017-02-18T11:40:42.076Z,19.18
2017-02-18T11:41:52.533Z,19.18
2017-02-18T11:43:02.219Z,19.24
2017-02-18T11:44:11.583Z,19.24
2017-02-18T11:45:21.085Z,19.36
2017-02-18T11:46:30.334Z,19.4
2017-02-18T11:47:39.350Z,19.32
2017-02-18T11:48:48.380Z,19.4
2017-02-18T11:49:58.125Z,19.45
2017-02-18T11:51:07.316Z,19.37
2017-02-18T11:52:16.336Z,19.33
2017-02-18T11:53:25.347Z,19.46
2017-02-18T11:54:34.414Z,19.46
2017-02-18T11:55:43.865Z,19.5
2017-02-18T11:56:53.039Z,19.45
2017-02-18T11:58:02.119Z,19.45
2017-02-18T11:59:11.309Z,19.51
2017-02-18T12:00:20.499Z,19.57
2017-02-18T12:01:29.516Z,19.62
2017-02-18T12:02:38.560Z,19.65
2017-02-18T12:03:50.230Z,19.64
2017-02-18T12:05:03.204Z,19.62
2017-02-18T12:06:17.627Z,19.7
2017-02-18T12:07:31.701Z,19.69
2017-02-18T12:08:46.125Z,19.57
2017-02-18T12:10:01.607Z,19.58
2017-02-18T12:11:17.058Z,19.55
2017-02-18T12:12:31.156Z,19.6
2017-02-18T12:13:43.858Z,19.73
2017-02-18T12:14:59.478Z,19.79
2017-02-18T12:16:14.509Z,19.77
2017-02-18T12:17:28.632Z,19.88
2017-02-18T12:18:42.005Z,19.77
2017-02-18T12:19:58.020Z,19.9
2017-02-18T12:21:13.027Z,19.9
2017-02-18T12:22:26.117Z,19.85
2017-02-18T12:23:40.710Z,19.85
2017-02-18T12:24:53.759Z,19.88
2017-02-18T12:26:07.668Z,19.91
2017-02-18T12:27:23.303Z,19.88
2017-02-18T12:28:37.232Z,19.88
2017-02-18T12:29:52.151Z,19.76
2017-02-18T12:31:07.583Z,19.88
2017-02-18T12:32:19.266Z,19.97
2017-02-18T12:33:28.700Z,19.97
2017-02-18T12:34:37.877Z,20.07
2017-02-18T12:35:47.358Z,20.1
2017-02-18T12:36:56.913Z,20.09
2017-02-18T12:38:06.699Z,20.13
2017-02-18T12:39:16.167Z,20.19
2017-02-18T12:40:25.485Z,20.2
2017-02-18T12:41:34.910Z,20.28
2017-02-18T12:42:44.512Z,20.24
2017-02-18T12:43:53.863Z,20.16
2017-02-18T12:45:03.252Z,20.22
2017-02-18T12:46:12.695Z,20.22
2017-02-18T12:47:21.822Z,20.22
2017-02-18T12:48:31.131Z,20.2
2017-02-18T12:49:41.493Z,20.24
2017-02-18T12:50:51.559Z,20.3
2017-02-18T12:52:00.753Z,20.31
2017-02-18T12:53:10.211Z,20.31
2017-02-18T12:54:19.682Z,20.27
2017-02-18T12:55:28.871Z,20.38
2017-02-18T12:56:38.837Z,20.34
2017-02-18T12:57:48.719Z,20.32
2017-02-18T12:58:57.807Z,20.38
2017-02-18T13:00:06.924Z,20.34
2017-02-18T13:01:18.274Z,20.47
2017-02-18T13:02:27.304Z,20.46
2017-02-18T13:03:36.343Z,20.51
2017-02-18T13:04:45.357Z,20.51
2017-02-18T13:05:54.371Z,20.56
2017-02-18T13:07:03.820Z,20.53
2017-02-18T13:08:12.826Z,20.53
2017-02-18T13:09:21.870Z,20.58
2017-02-18T13:10:30.951Z,20.56
2017-02-18T13:11:39.991Z,20.48
2017-02-18T13:12:49.009Z,20.54
2017-02-18T13:13:58.035Z,20.62
2017-02-18T13:15:07.043Z,20.57
2017-02-18T13:16:16.061Z,20.68
2017-02-18T13:17:25.094Z,20.6
2017-02-18T13:18:34.534Z,20.63
2017-02-18T13:19:43.557Z,20.57
2017-02-18T13:20:52.587Z,20.68
2017-02-18T13:22:01.593Z,20.62
2017-02-18T13:23:10.618Z,20.68
2017-02-18T13:24:19.646Z,20.65
2017-02-18T13:25:28.713Z,20.72
2017-02-18T13:26:37.753Z,20.78
2017-02-18T13:27:46.765Z,20.72
2017-02-18T13:28:55.812Z,20.73
2017-02-18T13:30:04.850Z,20.69
2017-02-18T13:31:13.873Z,20.76
2017-02-18T13:32:22.887Z,20.68
2017-02-18T13:33:31.914Z,20.81
2017-02-18T13:34:40.940Z,20.83
2017-02-18T13:35:49.951Z,20.79
2017-02-18T13:36:58.979Z,20.87
2017-02-18T13:38:08.039Z,20.83
2017-02-18T13:39:17.039Z,20.86
2017-02-18T13:40:26.136Z,20.86
2017-02-18T13:41:35.162Z,20.84
2017-02-18T13:42:44.200Z,20.9
2017-02-18T13:43:53.226Z,20.91
2017-02-18T13:45:02.663Z,20.91
2017-02-18T13:46:11.693Z,20.94
2017-02-18T13:47:20.705Z,20.94
2017-02-18T13:48:30.126Z,20.91
2017-02-18T13:49:39.861Z,20.95
2017-02-18T13:50:48.923Z,21.02
2017-02-18T13:51:57.940Z,21.02
2017-02-18T13:53:06.995Z,21.03
2017-02-18T13:54:16.024Z,21.02
2017-02-18T13:55:25.736Z,21.03
2017-02-18T13:56:35.251Z,21.06
2017-02-18T13:57:44.393Z,21.1
2017-02-18T13:58:53.422Z,20.95
2017-02-18T14:00:02.889Z,21.05
2017-02-18T14:01:11.914Z,21.15
2017-02-18T14:02:20.934Z,21.12
2017-02-18T14:03:30.036Z,21.12
2017-02-18T14:04:39.750Z,21.13
2017-02-18T14:05:49.215Z,21.18
2017-02-18T14:06:58.504Z,21.23
2017-02-18T14:08:07.939Z,21.23
2017-02-18T14:09:16.953Z,21.18
2017-02-18T14:10:26.996Z,21.12
2017-02-18T14:11:36.024Z,21.23
2017-02-18T14:12:45.036Z,21.18
2017-02-18T14:13:54.088Z,21.21
2017-02-18T14:15:03.125Z,21.23
2017-02-18T14:16:12.770Z,21.24
2017-02-18T14:17:22.226Z,21.24
2017-02-18T14:18:31.344Z,21.27
2017-02-18T14:19:40.435Z,21.21
2017-02-18T14:20:49.438Z,21.3
2017-02-18T14:21:58.890Z,21.3
2017-02-18T14:23:07.901Z,21.27
2017-02-18T14:24:16.913Z,21.27
2017-02-18T14:25:25.919Z,21.27
2017-02-18T14:26:34.937Z,21.3
2017-02-18T14:27:43.960Z,21.27
2017-02-18T14:28:52.997Z,21.28
2017-02-18T14:30:02.023Z,21.3
2017-02-18T14:31:11.044Z,21.31
2017-02-18T14:32:20.068Z,21.25
2017-02-18T14:33:29.087Z,21.3
2017-02-18T14:34:38.102Z,21.3
2017-02-18T14:35:47.124Z,21.33
2017-02-18T14:36:56.167Z,21.25
2017-02-18T14:38:05.186Z,21.38
2017-02-18T14:39:14.207Z,21.34
2017-02-18T14:40:23.229Z,21.33
2017-02-18T14:41:32.285Z,21.3
2017-02-18T14:42:41.307Z,21.33
2017-02-18T14:43:50.327Z,21.27
2017-02-18T14:44:59.337Z,21.25
2017-02-18T14:46:08.358Z,21.34
2017-02-18T14:47:17.384Z,21.38
2017-02-18T14:48:26.397Z,21.3
2017-02-18T14:49:35.819Z,21.33
2017-02-18T14:50:44.889Z,21.34
2017-02-18T14:51:54.315Z,21.39
2017-02-18T14:53:03.346Z,21.39
2017-02-18T14:54:12.368Z,21.06
2017-02-18T14:55:21.408Z,20.46
2017-02-18T14:56:30.430Z,20.56
2017-02-18T14:57:39.439Z,20.75
2017-02-18T14:58:48.455Z,20.95
2017-02-18T14:59:57.487Z,20.95